createdAt,value
2017-06-26T00:00:04.902Z,1006.62
2017-06-26T00:00:45.442Z,1006.61
2017-06-26T00:01:25.980Z,1006.63
2017-06-26T00:02:06.494Z,1006.59
2017-06-26T00:02:47.027Z,1006.61
2017-06-26T00:03:27.578Z,1006.61
2017-06-26T00:04:08.115Z,1006.61
2017-06-26T00:04:48.662Z,1006.64
2017-06-26T00:05:29.205Z,1006.63
2017-06-26T00:06:09.734Z,1006.63
2017-06-26T00:06:50.253Z,1006.66
2017-06-26T00:07:30.790Z,1006.61
2017-06-26T00:08:11.328Z,1006.61
2017-06-26T00:08:51.881Z,1006.61
2017-06-26T00:09:32.420Z,1006.67
2017-06-26T00:10:12.971Z,1006.68
2017-06-26T00:10:53.491Z,1006.67
2017-06-26T00:11:34.038Z,1006.66
2017-06-26T00:12:14.587Z,1006.66
2017-06-26T00:12:55.124Z,1006.68
2017-06-26T00:13:35.667Z,1006.66
2017-06-26T00:14:16.190Z,1006.69
2017-06-26T00:14:56.745Z,1006.71
2017-06-26T00:15:37.265Z,1006.75
2017-06-26T00:16:17.802Z,1006.73
2017-06-26T00:16:58.341Z,1006.73
2017-06-26T00:17:38.881Z,1006.74
2017-06-26T00:18:19.408Z,1006.71
2017-06-26T00:18:59.942Z,1006.73
2017-06-26T00:19:40.474Z,1006.69
2017-06-26T00:20:21.008Z,1006.74
2017-06-26T00:21:01.559Z,1006.73
2017-06-26T00:21:42.090Z,1006.77
2017-06-26T00:22:22.612Z,1006.75
2017-06-26T00:23:03.161Z,1006.76
2017-06-26T00:23:43.696Z,1006.81
2017-06-26T00:24:24.226Z,1006.73
2017-06-26T00:25:04.778Z,1006.74
2017-06-26T00:25:45.321Z,1006.77
2017-06-26T00:26:25.851Z,1006.78
2017-06-26T00:27:06.379Z,1006.77
2017-06-26T00:27:46.919Z,1006.78
2017-06-26T00:28:27.478Z,1006.75
2017-06-26T00:29:08.019Z,1006.74
2017-06-26T00:29:48.565Z,1006.77
2017-06-26T00:30:29.106Z,1006.79
2017-06-26T00:31:09.637Z,1006.73
2017-06-26T00:31:50.183Z,1006.74
2017-06-26T00:32:30.710Z,1006.76
2017-06-26T00:33:11.255Z,1006.77
2017-06-26T00:33:51.789Z,1006.8
2017-06-26T00:34:32.329Z,1006.8
2017-06-26T00:35:12.861Z,1006.82
2017-06-26T00:35:53.382Z,1006.85
2017-06-26T00:36:33.913Z,1006.8
2017-06-26T00:37:14.457Z,1006.74
2017-06-26T00:37:54.987Z,1006.79
2017-06-26T00:38:35.527Z,1006.78
2017-06-26T00:39:16.054Z,1006.77
2017-06-26T00:39:56.586Z,1006.77
2017-06-26T00:40:37.114Z,1006.74
2017-06-26T00:41:17.631Z,1006.81
2017-06-26T00:41:58.158Z,1006.8
2017-06-26T00:42:38.695Z,1006.83
2017-06-26T00:43:19.248Z,1006.8
2017-06-26T00:43:59.781Z,1006.82
2017-06-26T00:44:40.317Z,1006.8
2017-06-26T00:45:20.879Z,1006.8
2017-06-26T00:46:01.420Z,1006.78
2017-06-26T00:46:41.970Z,1006.74
2017-06-26T00:47:22.493Z,1006.74
2017-06-26T00:48:03.023Z,1006.76
2017-06-26T00:48:43.577Z,1006.8
2017-06-26T00:49:24.124Z,1006.77
2017-06-26T00:50:04.650Z,1006.77
2017-06-26T00:50:45.195Z,1006.78
2017-06-26T00:51:25.742Z,1006.77
2017-06-26T00:52:06.277Z,1006.81
2017-06-26T00:52:46.793Z,1006.8
2017-06-26T00:53:27.336Z,1006.79
2017-06-26T00:54:07.858Z,1006.77
2017-06-26T00:54:48.398Z,1006.78
2017-06-26T00:55:28.931Z,1006.78
2017-06-26T00:56:09.477Z,1006.8
2017-06-26T00:56:50.008Z,1006.82
2017-06-26T00:57:30.557Z,1006.84
2017-06-26T00:58:11.094Z,1006.84
2017-06-26T00:58:51.637Z,1006.85
2017-06-26T00:59:32.195Z,1006.84
2017-06-26T01:00:12.725Z,1006.85
2017-06-26T01:00:53.257Z,1006.83
2017-06-26T01:01:33.804Z,1006.8
2017-06-26T01:02:14.354Z,1006.83
2017-06-26T01:02:54.916Z,1006.83
2017-06-26T01:03:35.472Z,1006.84
2017-06-26T01:04:15.984Z,1006.82
2017-06-26T01:04:56.500Z,1006.82
2017-06-26T01:05:37.039Z,1006.82
2017-06-26T01:06:17.570Z,1006.83
2017-06-26T01:06:58.110Z,1006.83
2017-06-26T01:07:38.663Z,1006.83
2017-06-26T01:08:19.205Z,1006.81
2017-06-26T01:08:59.742Z,1006.8
2017-06-26T01:09:40.254Z,1006.81
2017-06-26T01:10:20.801Z,1006.81
2017-06-26T01:11:01.335Z,1006.82
2017-06-26T01:11:41.886Z,1006.83
2017-06-26T01:12:22.423Z,1006.84
2017-06-26T01:13:02.965Z,1006.81
2017-06-26T01:13:43.495Z,1006.82
2017-06-26T01:14:24.044Z,1006.77
2017-06-26T01:15:04.588Z,1006.8
2017-06-26T01:15:45.133Z,1006.79
2017-06-26T01:16:25.660Z,1006.78
2017-06-26T01:17:06.205Z,1006.8
2017-06-26T01:17:46.743Z,1006.76
2017-06-26T01:18:27.283Z,1006.77
2017-06-26T01:19:07.821Z,1006.78
2017-06-26T01:19:48.370Z,1006.73
2017-06-26T01:20:28.922Z,1006.77
2017-06-26T01:21:09.456Z,1006.75
2017-06-26T01:21:49.998Z,1006.78
2017-06-26T01:22:30.549Z,1006.78
2017-06-26T01:23:11.097Z,1006.79
2017-06-26T01:23:51.633Z,1006.79
2017-06-26T01:24:32.180Z,1006.76
2017-06-26T01:25:12.702Z,1006.76
2017-06-26T01:25:53.249Z,1006.79
2017-06-26T01:26:33.810Z,1006.76
2017-06-26T01:27:14.343Z,1006.74
2017-06-26T01:27:54.884Z,1006.84
2017-06-26T01:28:35.432Z,1006.79
2017-06-26T01:29:15.975Z,1006.8
2017-06-26T01:29:56.515Z,1006.81
2017-06-26T01:30:37.062Z,1006.78
2017-06-26T01:31:17.581Z,1006.8
2017-06-26T01:31:58.124Z,1006.79
2017-06-26T01:32:38.664Z,1006.77
2017-06-26T01:33:19.193Z,1006.81
2017-06-26T01:33:59.719Z,1006.8
2017-06-26T01:34:40.260Z,1006.76
2017-06-26T01:35:20.796Z,1006.78
2017-06-26T01:36:01.345Z,1006.8
2017-06-26T01:36:41.966Z,1006.8
2017-06-26T01:37:22.510Z,1006.82
2017-06-26T01:38:03.047Z,1006.81
2017-06-26T01:38:43.585Z,1006.8
2017-06-26T01:39:24.121Z,1006.81
2017-06-26T01:40:04.675Z,1006.77
2017-06-26T01:40:45.202Z,1006.78
2017-06-26T01:41:25.720Z,1006.79
2017-06-26T01:42:06.254Z,1006.79
2017-06-26T01:42:46.797Z,1006.8
2017-06-26T01:43:27.325Z,1006.79
2017-06-26T01:44:07.863Z,1006.78
2017-06-26T01:44:48.390Z,1006.81
2017-06-26T01:45:28.917Z,1006.8
2017-06-26T01:46:09.458Z,1006.79
2017-06-26T01:46:50.003Z,1006.79
2017-06-26T01:47:30.572Z,1006.82
2017-06-26T01:48:11.092Z,1006.8
2017-06-26T01:48:51.627Z,1006.84
2017-06-26T01:49:32.161Z,1006.81
2017-06-26T01:50:12.705Z,1006.8
2017-06-26T01:50:53.242Z,1006.8
2017-06-26T01:51:33.762Z,1006.86
2017-06-26T01:52:14.305Z,1006.81
2017-06-26T01:52:54.851Z,1006.84
2017-06-26T01:53:35.392Z,1006.79
2017-06-26T01:54:15.933Z,1006.82
2017-06-26T01:54:56.448Z,1006.8
2017-06-26T01:55:36.993Z,1006.8
2017-06-26T01:56:17.533Z,1006.82
2017-06-26T01:56:58.081Z,1006.76
2017-06-26T01:57:38.623Z,1006.81
2017-06-26T01:58:19.162Z,1006.8
2017-06-26T01:58:59.709Z,1006.85
2017-06-26T01:59:40.249Z,1006.88
2017-06-26T02:00:20.798Z,1006.86
2017-06-26T02:01:01.343Z,1006.88
2017-06-26T02:01:41.892Z,1006.81
2017-06-26T02:02:22.409Z,1006.86
2017-06-26T02:03:02.952Z,1006.84
2017-06-26T02:03:43.490Z,1006.83
2017-06-26T02:04:24.038Z,1006.82
2017-06-26T02:05:04.587Z,1006.82
2017-06-26T02:05:45.117Z,1006.82
2017-06-26T02:06:25.650Z,1006.84
2017-06-26T02:07:06.197Z,1006.85
2017-06-26T02:07:46.729Z,1006.85
2017-06-26T02:08:27.269Z,1006.86
2017-06-26T02:09:07.805Z,1006.86
2017-06-26T02:09:48.350Z,1006.85
2017-06-26T02:10:28.902Z,1006.83
2017-06-26T02:11:09.426Z,1006.82
2017-06-26T02:11:49.971Z,1006.82
2017-06-26T02:12:30.512Z,1006.79
2017-06-26T02:13:11.054Z,1006.8
2017-06-26T02:13:51.609Z,1006.81
2017-06-26T02:14:32.154Z,1006.79
2017-06-26T02:15:12.696Z,1006.79
2017-06-26T02:15:53.237Z,1006.79
2017-06-26T02:16:33.775Z,1006.82
2017-06-26T02:17:14.317Z,1006.86
2017-06-26T02:17:54.852Z,1006.84
2017-06-26T02:18:35.412Z,1006.83
2017-06-26T02:19:16.044Z,1006.81
2017-06-26T02:19:56.585Z,1006.81
2017-06-26T02:20:37.133Z,1006.81
2017-06-26T02:21:17.671Z,1006.84
2017-06-26T02:21:58.212Z,1006.8
2017-06-26T02:22:38.752Z,1006.84
2017-06-26T02:23:19.278Z,1006.8
2017-06-26T02:23:59.818Z,1006.83
2017-06-26T02:24:40.361Z,1006.81
2017-06-26T02:25:20.900Z,1006.8
2017-06-26T02:26:01.442Z,1006.78
2017-06-26T02:26:41.988Z,1006.82
2017-06-26T02:27:22.541Z,1006.81
2017-06-26T02:28:03.077Z,1006.8
2017-06-26T02:28:43.612Z,1006.82
2017-06-26T02:29:24.135Z,1006.83
2017-06-26T02:30:04.677Z,1006.81
2017-06-26T02:30:45.197Z,1006.8
2017-06-26T02:31:25.745Z,1006.8
2017-06-26T02:32:06.279Z,1006.79
2017-06-26T02:32:46.823Z,1006.77
2017-06-26T02:33:27.348Z,1006.77
2017-06-26T02:34:07.889Z,1006.77
2017-06-26T02:34:48.438Z,1006.8
2017-06-26T02:35:28.989Z,1006.78
2017-06-26T02:36:09.518Z,1006.8
2017-06-26T02:36:50.062Z,1006.78
2017-06-26T02:37:30.590Z,1006.82
2017-06-26T02:38:11.120Z,1006.82
2017-06-26T02:38:51.677Z,1006.79
2017-06-26T02:39:32.216Z,1006.8
2017-06-26T02:40:12.738Z,1006.82
2017-06-26T02:40:53.286Z,1006.83
2017-06-26T02:41:33.822Z,1006.89
2017-06-26T02:42:14.369Z,1006.91
2017-06-26T02:42:54.908Z,1006.88
2017-06-26T02:43:35.449Z,1006.88
2017-06-26T02:44:15.991Z,1006.85
2017-06-26T02:44:56.579Z,1006.9
2017-06-26T02:45:37.128Z,1006.86
2017-06-26T02:46:17.670Z,1006.87
2017-06-26T02:46:58.212Z,1006.91
2017-06-26T02:47:38.749Z,1006.85
2017-06-26T02:48:19.287Z,1006.88
2017-06-26T02:48:59.830Z,1006.86
2017-06-26T02:49:40.353Z,1006.84
2017-06-26T02:50:20.907Z,1006.85
2017-06-26T02:51:01.437Z,1006.86
2017-06-26T02:51:41.974Z,1006.88
2017-06-26T02:52:22.528Z,1006.87
2017-06-26T02:53:03.091Z,1006.86
2017-06-26T02:53:43.627Z,1006.86
2017-06-26T02:54:24.173Z,1006.79
2017-06-26T02:55:04.703Z,1006.79
2017-06-26T02:55:45.226Z,1006.82
2017-06-26T02:56:25.766Z,1006.77
2017-06-26T02:57:06.296Z,1006.8
2017-06-26T02:57:46.845Z,1006.8
2017-06-26T02:58:27.372Z,1006.79
2017-06-26T02:59:07.910Z,1006.81
2017-06-26T02:59:48.472Z,1006.79
2017-06-26T03:00:28.962Z,1006.79
2017-06-26T03:01:09.469Z,1006.79
2017-06-26T03:01:49.998Z,1006.78
2017-06-26T03:02:30.536Z,1006.8
2017-06-26T03:03:11.079Z,1006.77
2017-06-26T03:03:51.597Z,1006.76
2017-06-26T03:04:32.161Z,1006.77
2017-06-26T03:05:12.668Z,1006.77
2017-06-26T03:05:53.186Z,1006.76
2017-06-26T03:06:33.755Z,1006.74
2017-06-26T03:07:14.274Z,1006.74
2017-06-26T03:07:54.803Z,1006.76
2017-06-26T03:08:35.373Z,1006.75
2017-06-26T03:09:15.853Z,1006.75
2017-06-26T03:09:56.381Z,1006.76
2017-06-26T03:10:36.923Z,1006.76
2017-06-26T03:11:17.463Z,1006.72
2017-06-26T03:11:58.012Z,1006.75
2017-06-26T03:12:38.560Z,1006.75
2017-06-26T03:13:19.111Z,1006.74
2017-06-26T03:13:59.664Z,1006.75
2017-06-26T03:14:40.203Z,1006.77
2017-06-26T03:15:20.731Z,1006.77
2017-06-26T03:16:01.278Z,1006.79
2017-06-26T03:16:41.808Z,1006.8
2017-06-26T03:17:22.354Z,1006.82
2017-06-26T03:18:02.893Z,1006.84
2017-06-26T03:18:43.431Z,1006.83
2017-06-26T03:19:23.971Z,1006.81
2017-06-26T03:20:04.511Z,1006.83
2017-06-26T03:20:45.063Z,1006.84
2017-06-26T03:21:25.615Z,1006.85
2017-06-26T03:22:06.171Z,1006.88
2017-06-26T03:22:46.693Z,1006.84
2017-06-26T03:23:27.217Z,1006.82
2017-06-26T03:24:07.769Z,1006.86
2017-06-26T03:24:48.266Z,1006.84
2017-06-26T03:25:28.799Z,1006.87
2017-06-26T03:26:09.311Z,1006.84
2017-06-26T03:26:49.849Z,1006.84
2017-06-26T03:27:30.377Z,1006.84
2017-06-26T03:28:10.919Z,1006.86
2017-06-26T03:28:51.413Z,1006.83
2017-06-26T03:29:31.931Z,1006.83
2017-06-26T03:30:12.453Z,1006.85
2017-06-26T03:30:52.977Z,1006.86
2017-06-26T03:31:33.490Z,1006.87
2017-06-26T03:32:14.036Z,1006.87
2017-06-26T03:32:54.627Z,1006.88
2017-06-26T03:33:35.166Z,1006.88
2017-06-26T03:34:15.756Z,1006.87
2017-06-26T03:34:56.295Z,1006.91
2017-06-26T03:35:36.836Z,1006.89
2017-06-26T03:36:17.381Z,1006.88
2017-06-26T03:36:57.923Z,1006.88
2017-06-26T03:37:38.467Z,1006.88
2017-06-26T03:38:19.017Z,1006.84
2017-06-26T03:38:59.585Z,1006.89
2017-06-26T03:39:40.099Z,1006.88
2017-06-26T03:40:20.624Z,1006.83
2017-06-26T03:41:01.161Z,1006.86
2017-06-26T03:41:41.704Z,1006.83
2017-06-26T03:42:22.234Z,1006.81
2017-06-26T03:43:02.788Z,1006.83
2017-06-26T03:43:43.301Z,1006.81
2017-06-26T03:44:23.852Z,1006.83
2017-06-26T03:45:04.399Z,1006.79
2017-06-26T03:45:45.013Z,1006.83
2017-06-26T03:46:25.530Z,1006.76
2017-06-26T03:47:06.061Z,1006.81
2017-06-26T03:47:46.577Z,1006.81
2017-06-26T03:48:27.133Z,1006.83
2017-06-26T03:49:07.668Z,1006.8
2017-06-26T03:49:48.223Z,1006.81
2017-06-26T03:50:28.748Z,1006.81
2017-06-26T03:51:09.275Z,1006.76
2017-06-26T03:51:49.796Z,1006.8
2017-06-26T03:52:30.314Z,1006.78
2017-06-26T03:53:10.871Z,1006.84
2017-06-26T03:53:51.444Z,1006.76
2017-06-26T03:54:32.002Z,1006.8
2017-06-26T03:55:12.455Z,1006.78
2017-06-26T03:55:52.994Z,1006.81
2017-06-26T03:56:33.506Z,1006.77
2017-06-26T03:57:14.042Z,1006.76
2017-06-26T03:57:54.543Z,1006.79
2017-06-26T03:58:35.072Z,1006.79
2017-06-26T03:59:15.607Z,1006.75
2017-06-26T03:59:56.148Z,1006.73
2017-06-26T04:00:36.697Z,1006.7
2017-06-26T04:01:17.214Z,1006.73
2017-06-26T04:01:57.743Z,1006.72
2017-06-26T04:02:38.294Z,1006.7
2017-06-26T04:03:18.835Z,1006.7
2017-06-26T04:03:59.397Z,1006.69
2017-06-26T04:04:39.870Z,1006.69
2017-06-26T04:05:20.420Z,1006.68
2017-06-26T04:06:00.961Z,1006.64
2017-06-26T04:06:41.498Z,1006.66
2017-06-26T04:07:22.121Z,1006.63
2017-06-26T04:08:02.651Z,1006.67
2017-06-26T04:08:43.196Z,1006.68
2017-06-26T04:09:23.723Z,1006.71
2017-06-26T04:10:04.262Z,1006.72
2017-06-26T04:10:44.819Z,1006.73
2017-06-26T04:11:25.360Z,1006.76
2017-06-26T04:12:05.909Z,1006.74
2017-06-26T04:12:46.512Z,1006.73
2017-06-26T04:13:27.000Z,1006.7
2017-06-26T04:14:07.567Z,1006.73
2017-06-26T04:14:48.134Z,1006.7
2017-06-26T04:15:28.641Z,1006.7
2017-06-26T04:16:09.187Z,1006.66
2017-06-26T04:16:49.707Z,1006.61
2017-06-26T04:17:30.250Z,1006.64
2017-06-26T04:18:10.774Z,1006.65
2017-06-26T04:18:51.301Z,1006.67
2017-06-26T04:19:31.833Z,1006.67
2017-06-26T04:20:12.364Z,1006.63
2017-06-26T04:20:52.926Z,1006.62
2017-06-26T04:21:33.639Z,1006.63
2017-06-26T04:22:14.149Z,1006.65
2017-06-26T04:22:54.737Z,1006.63
2017-06-26T04:23:35.272Z,1006.62
2017-06-26T04:24:15.868Z,1006.62
2017-06-26T04:24:56.374Z,1006.63
2017-06-26T04:25:36.948Z,1006.65
2017-06-26T04:26:17.480Z,1006.63
2017-06-26T04:26:58.006Z,1006.61
2017-06-26T04:27:38.504Z,1006.67
2017-06-26T04:28:19.018Z,1006.67
2017-06-26T04:28:59.548Z,1006.65
2017-06-26T04:29:40.093Z,1006.66
2017-06-26T04:30:20.566Z,1006.67
2017-06-26T04:31:01.231Z,1006.67
2017-06-26T04:31:41.758Z,1006.69
2017-06-26T04:32:22.285Z,1006.7
2017-06-26T04:33:02.860Z,1006.69
2017-06-26T04:33:43.369Z,1006.71
2017-06-26T04:34:23.870Z,1006.72
2017-06-26T04:35:04.382Z,1006.72
2017-06-26T04:35:45.020Z,1006.71
2017-06-26T04:36:25.606Z,1006.7
2017-06-26T04:37:06.147Z,1006.67
2017-06-26T04:37:46.840Z,1006.68
2017-06-26T04:38:27.307Z,1006.69
2017-06-26T04:39:07.871Z,1006.7
2017-06-26T04:39:48.357Z,1006.77
2017-06-26T04:40:28.916Z,1006.77
2017-06-26T04:41:09.469Z,1006.76
2017-06-26T04:41:49.981Z,1006.76
2017-06-26T04:42:30.562Z,1006.79
2017-06-26T04:43:11.097Z,1006.8
2017-06-26T04:43:51.639Z,1006.8
2017-06-26T04:44:32.147Z,1006.79
2017-06-26T04:45:12.717Z,1006.79
2017-06-26T04:45:53.239Z,1006.84
2017-06-26T04:46:33.873Z,1006.82
2017-06-26T04:47:14.402Z,1006.85
2017-06-26T04:47:56.868Z,1006.89
2017-06-26T04:48:37.353Z,1006.87
2017-06-26T04:49:17.864Z,1006.85
2017-06-26T04:49:58.397Z,1006.82
2017-06-26T04:50:38.976Z,1006.84
2017-06-26T04:51:19.486Z,1006.87
2017-06-26T04:52:00.038Z,1006.86
2017-06-26T04:52:40.589Z,1006.86
2017-06-26T04:53:21.136Z,1006.91
2017-06-26T04:54:01.733Z,1006.94
2017-06-26T04:54:42.272Z,1006.91
2017-06-26T04:55:22.819Z,1006.91
2017-06-26T04:56:03.352Z,1006.95
2017-06-26T04:56:43.906Z,1006.93
2017-06-26T04:57:24.510Z,1006.94
2017-06-26T04:58:05.061Z,1006.96
2017-06-26T04:58:45.612Z,1007
2017-06-26T04:59:26.155Z,1006.94
2017-06-26T05:00:06.682Z,1006.92
2017-06-26T05:00:47.259Z,1006.97
2017-06-26T05:01:27.793Z,1006.95
2017-06-26T05:02:08.336Z,1006.97
2017-06-26T05:02:48.872Z,1006.96
2017-06-26T05:03:29.417Z,1006.97
2017-06-26T05:04:09.964Z,1006.94
2017-06-26T05:04:50.517Z,1006.99
2017-06-26T05:05:31.053Z,1006.95
2017-06-26T05:06:11.598Z,1006.96
2017-06-26T05:06:52.135Z,1006.98
2017-06-26T05:07:32.678Z,1006.97
2017-06-26T05:08:13.221Z,1006.95
2017-06-26T05:08:53.774Z,1006.96
2017-06-26T05:09:34.306Z,1006.99
2017-06-26T05:10:14.866Z,1007
2017-06-26T05:10:55.391Z,1007.01
2017-06-26T05:11:35.931Z,1007
2017-06-26T05:12:16.478Z,1006.98
2017-06-26T05:12:57.040Z,1006.95
2017-06-26T05:13:37.564Z,1006.98
2017-06-26T05:14:18.107Z,1006.97
2017-06-26T05:14:58.654Z,1006.93
2017-06-26T05:15:39.228Z,1006.91
2017-06-26T05:16:19.724Z,1006.92
2017-06-26T05:17:00.283Z,1006.94
2017-06-26T05:17:40.796Z,1006.94
2017-06-26T05:18:21.312Z,1006.92
2017-06-26T05:19:01.856Z,1006.93
2017-06-26T05:19:42.399Z,1006.95
2017-06-26T05:20:22.936Z,1006.95
2017-06-26T05:21:03.480Z,1006.98
2017-06-26T05:21:44.061Z,1006.95
2017-06-26T05:22:24.600Z,1006.97
2017-06-26T05:23:05.142Z,1006.96
2017-06-26T05:23:45.685Z,1006.94
2017-06-26T05:24:26.230Z,1006.96
2017-06-26T05:25:06.761Z,1007.01
2017-06-26T05:25:47.305Z,1007.02
2017-06-26T05:26:27.842Z,1007.04
2017-06-26T05:27:08.385Z,1007.03
2017-06-26T05:27:48.925Z,1007.09
2017-06-26T05:28:29.470Z,1007.13
2017-06-26T05:29:10.008Z,1007.09
2017-06-26T05:29:50.545Z,1007.12
2017-06-26T05:30:31.087Z,1007.15
2017-06-26T05:31:11.615Z,1007.1
2017-06-26T05:31:52.140Z,1007.1
2017-06-26T05:32:32.672Z,1007.14
2017-06-26T05:33:13.223Z,1007.12
2017-06-26T05:33:53.764Z,1007.07
2017-06-26T05:34:34.307Z,1007.12
2017-06-26T05:35:14.842Z,1007.12
2017-06-26T05:35:55.393Z,1007.12
2017-06-26T05:36:35.916Z,1007.13
2017-06-26T05:37:16.448Z,1007.17
2017-06-26T05:37:57.014Z,1007.16
2017-06-26T05:38:37.531Z,1007.16
2017-06-26T05:39:18.064Z,1007.14
2017-06-26T05:39:58.618Z,1007.12
2017-06-26T05:40:39.166Z,1007.11
2017-06-26T05:41:19.705Z,1007.09
2017-06-26T05:42:00.237Z,1007.13
2017-06-26T05:42:40.774Z,1007.11
2017-06-26T05:43:21.309Z,1007.09
2017-06-26T05:44:01.872Z,1007.07
2017-06-26T05:44:42.412Z,1007.11
2017-06-26T05:45:22.951Z,1007.11
2017-06-26T05:46:03.486Z,1007.14
2017-06-26T05:46:44.032Z,1007.1
2017-06-26T05:47:24.568Z,1007.12
2017-06-26T05:48:05.112Z,1007.16
2017-06-26T05:48:45.652Z,1007.16
2017-06-26T05:49:26.196Z,1007.11
2017-06-26T05:50:06.727Z,1007.15
2017-06-26T05:50:47.266Z,1007.16
2017-06-26T05:51:27.834Z,1007.19
2017-06-26T05:52:08.380Z,1007.17
2017-06-26T05:52:48.920Z,1007.16
2017-06-26T05:53:29.463Z,1007.17
2017-06-26T05:54:10.011Z,1007.16
2017-06-26T05:54:50.556Z,1007.17
2017-06-26T05:55:31.294Z,1007.25
2017-06-26T05:56:11.944Z,1007.19
2017-06-26T05:56:52.482Z,1007.19
2017-06-26T05:57:33.029Z,1007.24
2017-06-26T05:58:13.573Z,1007.19
2017-06-26T05:58:54.120Z,1007.23
2017-06-26T05:59:34.651Z,1007.25
2017-06-26T06:00:15.201Z,1007.22
2017-06-26T06:00:55.741Z,1007.28
2017-06-26T06:01:36.276Z,1007.29
2017-06-26T06:02:16.818Z,1007.26
2017-06-26T06:02:57.362Z,1007.27
2017-06-26T06:03:37.914Z,1007.24
2017-06-26T06:04:18.468Z,1007.19
2017-06-26T06:04:59.025Z,1007.22
2017-06-26T06:05:39.564Z,1007.22
2017-06-26T06:06:20.106Z,1007.24
2017-06-26T06:07:00.641Z,1007.25
2017-06-26T06:07:41.176Z,1007.2
2017-06-26T06:08:21.719Z,1007.23
2017-06-26T06:09:02.255Z,1007.24
2017-06-26T06:09:42.788Z,1007.19
2017-06-26T06:10:23.323Z,1007.24
2017-06-26T06:11:03.872Z,1007.28
2017-06-26T06:11:44.421Z,1007.3
2017-06-26T06:12:24.960Z,1007.33
2017-06-26T06:13:05.506Z,1007.32
2017-06-26T06:13:46.048Z,1007.35
2017-06-26T06:14:26.598Z,1007.33
2017-06-26T06:15:07.146Z,1007.34
2017-06-26T06:15:47.699Z,1007.38
2017-06-26T06:16:28.245Z,1007.25
2017-06-26T06:17:08.792Z,1007.33
2017-06-26T06:17:49.321Z,1007.25
2017-06-26T06:18:29.857Z,1007.21
2017-06-26T06:19:10.396Z,1007.2
2017-06-26T06:19:50.942Z,1007.2
2017-06-26T06:20:31.484Z,1007.21
2017-06-26T06:21:12.028Z,1007.19
2017-06-26T06:21:52.580Z,1007.25
2017-06-26T06:22:33.133Z,1007.21
2017-06-26T06:23:13.679Z,1007.27
2017-06-26T06:23:54.225Z,1007.28
2017-06-26T06:24:34.772Z,1007.24
2017-06-26T06:25:15.313Z,1007.27
2017-06-26T06:25:55.858Z,1007.24
2017-06-26T06:26:36.398Z,1007.24
2017-06-26T06:27:16.933Z,1007.23
2017-06-26T06:27:57.480Z,1007.22
2017-06-26T06:28:38.028Z,1007.22
2017-06-26T06:29:18.559Z,1007.23
2017-06-26T06:29:59.109Z,1007.2
2017-06-26T06:30:39.649Z,1007.24
2017-06-26T06:31:20.180Z,1007.22
2017-06-26T06:32:00.727Z,1007.22
2017-06-26T06:32:41.276Z,1007.24
2017-06-26T06:33:21.829Z,1007.22
2017-06-26T06:34:02.374Z,1007.22
2017-06-26T06:34:42.884Z,1007.18
2017-06-26T06:35:23.439Z,1007.2
2017-06-26T06:36:03.976Z,1007.19
2017-06-26T06:36:44.529Z,1007.22
2017-06-26T06:37:25.064Z,1007.24
2017-06-26T06:38:05.607Z,1007.24
2017-06-26T06:38:46.153Z,1007.23
2017-06-26T06:39:26.703Z,1007.24
2017-06-26T06:40:07.262Z,1007.22
2017-06-26T06:40:47.778Z,1007.24
2017-06-26T06:41:28.347Z,1007.29
2017-06-26T06:42:08.860Z,1007.27
2017-06-26T06:42:49.380Z,1007.32
2017-06-26T06:43:29.880Z,1007.3
2017-06-26T06:44:10.426Z,1007.32
2017-06-26T06:44:50.969Z,1007.31
2017-06-26T06:45:31.498Z,1007.34
2017-06-26T06:46:12.043Z,1007.34
2017-06-26T06:46:52.578Z,1007.35
2017-06-26T06:47:33.122Z,1007.37
2017-06-26T06:48:13.689Z,1007.37
2017-06-26T06:48:54.234Z,1007.4
2017-06-26T06:49:34.757Z,1007.45
2017-06-26T06:50:15.307Z,1007.46
2017-06-26T06:50:55.856Z,1007.41
2017-06-26T06:51:36.401Z,1007.46
2017-06-26T06:52:16.949Z,1007.48
2017-06-26T06:52:57.489Z,1007.5
2017-06-26T06:53:38.045Z,1007.53
2017-06-26T06:54:18.589Z,1007.52
2017-06-26T06:54:59.139Z,1007.52
2017-06-26T06:55:39.676Z,1007.53
2017-06-26T06:56:20.256Z,1007.54
2017-06-26T06:57:00.796Z,1007.5
2017-06-26T06:57:41.348Z,1007.51
2017-06-26T06:58:21.859Z,1007.51
2017-06-26T06:59:02.609Z,1007.53
2017-06-26T06:59:42.996Z,1007.53
2017-06-26T07:00:23.520Z,1007.58
2017-06-26T07:01:04.067Z,1007.57
2017-06-26T07:01:44.585Z,1007.58
2017-06-26T07:02:25.118Z,1007.59
2017-06-26T07:03:05.651Z,1007.6
2017-06-26T07:03:46.210Z,1007.58
2017-06-26T07:04:26.765Z,1007.63
2017-06-26T07:05:07.311Z,1007.57
2017-06-26T07:05:47.849Z,1007.6
2017-06-26T07:06:28.353Z,1007.58
2017-06-26T07:07:08.899Z,1007.63
2017-06-26T07:07:49.432Z,1007.58
2017-06-26T07:08:29.979Z,1007.56
2017-06-26T07:09:10.531Z,1007.57
2017-06-26T07:09:51.052Z,1007.58
2017-06-26T07:10:31.594Z,1007.52
2017-06-26T07:11:12.127Z,1007.56
2017-06-26T07:11:52.665Z,1007.54
2017-06-26T07:12:33.218Z,1007.56
2017-06-26T07:13:13.763Z,1007.54
2017-06-26T07:13:54.289Z,1007.52
2017-06-26T07:14:34.838Z,1007.52
2017-06-26T07:15:15.371Z,1007.52
2017-06-26T07:15:55.910Z,1007.53
2017-06-26T07:16:36.437Z,1007.57
2017-06-26T07:17:17.016Z,1007.56
2017-06-26T07:17:57.559Z,1007.54
2017-06-26T07:18:38.082Z,1007.52
2017-06-26T07:19:18.631Z,1007.51
2017-06-26T07:19:59.174Z,1007.55
2017-06-26T07:20:39.717Z,1007.56
2017-06-26T07:21:20.278Z,1007.57
2017-06-26T07:22:00.797Z,1007.59
2017-06-26T07:22:41.344Z,1007.56
2017-06-26T07:23:21.890Z,1007.57
2017-06-26T07:24:02.425Z,1007.58
2017-06-26T07:24:42.957Z,1007.58
2017-06-26T07:25:23.482Z,1007.56
2017-06-26T07:26:04.018Z,1007.55
2017-06-26T07:26:44.550Z,1007.6
2017-06-26T07:27:25.096Z,1007.56
2017-06-26T07:28:05.637Z,1007.57
2017-06-26T07:28:46.178Z,1007.58
2017-06-26T07:29:26.726Z,1007.56
2017-06-26T07:30:07.245Z,1007.56
2017-06-26T07:30:47.780Z,1007.57
2017-06-26T07:31:28.327Z,1007.53
2017-06-26T07:32:08.874Z,1007.51
2017-06-26T07:32:49.412Z,1007.51
2017-06-26T07:33:29.987Z,1007.47
2017-06-26T07:34:10.505Z,1007.52
2017-06-26T07:34:51.040Z,1007.48
2017-06-26T07:35:31.564Z,1007.48
2017-06-26T07:36:12.083Z,1007.53
2017-06-26T07:36:52.634Z,1007.56
2017-06-26T07:37:33.234Z,1007.57
2017-06-26T07:38:13.783Z,1007.57
2017-06-26T07:38:54.347Z,1007.56
2017-06-26T07:39:34.891Z,1007.59
2017-06-26T07:40:15.435Z,1007.57
2017-06-26T07:40:55.987Z,1007.59
2017-06-26T07:41:36.536Z,1007.55
2017-06-26T07:42:17.094Z,1007.59
2017-06-26T07:42:57.632Z,1007.59
2017-06-26T07:43:38.190Z,1007.55
2017-06-26T07:44:18.707Z,1007.6
2017-06-26T07:44:59.244Z,1007.63
2017-06-26T07:45:39.797Z,1007.61
2017-06-26T07:46:20.329Z,1007.65
2017-06-26T07:47:00.873Z,1007.66
2017-06-26T07:47:41.427Z,1007.77
2017-06-26T07:48:21.970Z,1007.65
2017-06-26T07:49:02.525Z,1007.66
2017-06-26T07:49:43.046Z,1007.67
2017-06-26T07:50:23.600Z,1007.67
2017-06-26T07:51:04.114Z,1007.67
2017-06-26T07:51:44.654Z,1007.67
2017-06-26T07:52:25.204Z,1007.72
2017-06-26T07:53:05.735Z,1007.67
2017-06-26T07:53:46.286Z,1007.69
2017-06-26T07:54:26.830Z,1007.69
2017-06-26T07:55:07.384Z,1007.66
2017-06-26T07:55:47.947Z,1007.69
2017-06-26T07:56:28.503Z,1007.66
2017-06-26T07:57:09.066Z,1007.66
2017-06-26T07:57:49.593Z,1007.68
2017-06-26T07:58:30.131Z,1007.64
2017-06-26T07:59:10.679Z,1007.67
2017-06-26T07:59:51.221Z,1007.69
2017-06-26T08:00:31.725Z,1007.66
2017-06-26T08:01:12.260Z,1007.68
2017-06-26T08:01:52.816Z,1007.67
2017-06-26T08:02:33.345Z,1007.66
2017-06-26T08:03:13.892Z,1007.65
2017-06-26T08:03:54.461Z,1007.65
2017-06-26T08:04:35.015Z,1007.67
2017-06-26T08:05:15.557Z,1007.66
2017-06-26T08:05:56.115Z,1007.63
2017-06-26T08:06:36.671Z,1007.64
2017-06-26T08:07:17.220Z,1007.64
2017-06-26T08:07:57.753Z,1007.6
2017-06-26T08:08:38.309Z,1007.64
2017-06-26T08:09:18.881Z,1007.63
2017-06-26T08:09:59.400Z,1007.66
2017-06-26T08:10:39.946Z,1007.62
2017-06-26T08:11:20.492Z,1007.63
2017-06-26T08:12:01.025Z,1007.64